Vremea acum in Bucuresti - Romania

Vrei sa afli care e starea vremii acum in Bucuresti - Romania? Dorim sa iti furnizam starea vremii pentru Bucuresti - Romania. Starea vremii Bucuresti - Romania pentru astazi.

Vremea acum in Bucuresti

Temperatura: 21 °C

Se simte ca: 21 °C
Innorat: 0 %
Precipitatii: 0 %
Presiune atmosferica: 1018 hPa
Umiditate: 78%
Vizibilitate: 10 km
Vantul bate din WSW cu 0 km/h

Evolutia vremii in Bucuresti pe ore

Ora: 07:00
Parțial noros
Temperatura: 25.5°C
Sansa de precipitatii: 0%
Ora Descriere Temp Se simte Precipitatii Umiditate Vant
00:00Parțial noros25.2°25.6°0%43%WSW 5 KM/H
01:00Parțial noros24.6°25.4°0%44%WSW 4.7 KM/H
02:00Parțial noros24.1°25.1°0%45%WSW 4.7 KM/H
03:00Parțial noros23.6°24.9°0%46%WSW 4.7 KM/H
04:00Parțial noros23.2°24.8°0%48%WSW 4.7 KM/H
05:00Parțial noros22.7°24.6°0%49%WSW 4.7 KM/H
06:00Parțial noros24.1°25.4°0%47%W 5 KM/H
07:00Parțial noros25.5°26.3°0%45%W 5.8 KM/H
08:00Parțial noros26.9°27.1°0%44%W 6.1 KM/H
09:00Parțial noros28.6°28.6°0%40%W 6.8 KM/H
10:00Parțial noros30.2°30.1°0%37%W 7.2 KM/H
11:00Parțial noros31.9°31.6°0%33%WSW 7.9 KM/H
12:00Parțial noros32.6°32.3°0%32%WSW 9 KM/H
13:00Parțial noros33.4°32.9°0%30%WSW 9.7 KM/H
14:00Parțial noros34.1°33.6°0%28%WSW 10.8 KM/H
15:00Parțial noros34°33.5°0%28%WSW 9.7 KM/H
16:00Parțial noros33.9°33.5°0%29%WSW 8.6 KM/H
17:00Parțial noros33.8°33.4°0%29%WSW 7.6 KM/H
18:00Ploi pe porţiuni în apropiere32.5°32.9°23%37%S 10.4 KM/H
19:00Parțial noros31.1°32.3°46%45%ESE 13.3 KM/H
20:00Ploi pe porţiuni în apropiere29.8°31.8°69%53%NE 16.2 KM/H
21:00Ploi de scurtă durată moderate sau în cantităţi însemnate28.5°31.1°76%60%NE 15.5 KM/H
22:00Ploi pe porţiuni în apropiere27.1°30.5°82%67%NE 14.4 KM/H
23:00Ploi de scurtă durată moderate sau în cantităţi însemnate25.8°29.8°89%74%ENE 13.7 KM/H